createdAt,value
2023-04-22T00:02:23.393Z,8.00
2023-04-22T00:04:51.100Z,8.10
2023-04-22T00:07:18.236Z,8.00
2023-04-22T00:09:45.797Z,7.90
2023-04-22T00:12:12.819Z,7.80
2023-04-22T00:14:39.652Z,7.70
2023-04-22T00:17:07.009Z,7.70
2023-04-22T00:19:34.475Z,7.60
2023-04-22T00:22:01.364Z,7.60
2023-04-22T00:24:28.145Z,7.50
2023-04-22T00:26:54.907Z,7.40
2023-04-22T00:29:21.705Z,7.40
2023-04-22T00:31:48.790Z,7.40
2023-04-22T00:34:17.845Z,7.30
2023-04-22T00:36:44.985Z,7.30
2023-04-22T00:39:12.507Z,7.20
2023-04-22T00:41:39.969Z,7.20
2023-04-22T00:44:11.186Z,7.10
2023-04-22T00:46:40.916Z,7.10
2023-04-22T00:49:08.059Z,7.10
2023-04-22T00:51:35.208Z,7.10
2023-04-22T00:54:02.090Z,7.10
2023-04-22T00:56:29.072Z,7.10
2023-04-22T00:58:56.740Z,7.10
2023-04-22T01:01:23.664Z,7.10
2023-04-22T01:03:50.911Z,7.10
2023-04-22T01:06:19.166Z,7.20
2023-04-22T01:08:46.088Z,7.20
2023-04-22T01:11:14.582Z,7.20
2023-04-22T01:13:41.713Z,7.20
2023-04-22T01:16:09.067Z,7.20
2023-04-22T01:18:36.620Z,7.20
2023-04-22T01:21:03.703Z,7.20
2023-04-22T01:23:30.516Z,7.20
2023-04-22T01:25:57.410Z,7.20
2023-04-22T01:28:24.410Z,7.20
2023-04-22T01:30:51.335Z,7.10
2023-04-22T01:33:18.595Z,7.10
2023-04-22T01:35:45.480Z,7.10
2023-04-22T01:38:12.551Z,7.10
2023-04-22T01:40:39.508Z,7.10
2023-04-22T01:43:06.938Z,7.20
2023-04-22T01:45:34.028Z,7.20
2023-04-22T01:48:01.120Z,7.30
2023-04-22T01:50:28.086Z,7.30
2023-04-22T01:52:55.015Z,7.30
2023-04-22T01:55:22.806Z,7.30
2023-04-22T01:57:49.868Z,7.30
2023-04-22T02:00:17.581Z,7.30
2023-04-22T02:02:47.621Z,7.30
2023-04-22T02:05:14.842Z,7.20
2023-04-22T02:07:41.856Z,7.20
2023-04-22T02:10:09.921Z,7.20
2023-04-22T02:12:36.757Z,7.10
2023-04-22T02:15:04.131Z,7.00
2023-04-22T02:17:31.139Z,7.00
2023-04-22T02:19:58.247Z,7.10
2023-04-22T02:22:25.470Z,7.10
2023-04-22T02:24:52.422Z,7.20
2023-04-22T02:27:19.178Z,7.20
2023-04-22T02:29:48.360Z,7.30
2023-04-22T02:32:17.429Z,7.30
2023-04-22T02:34:44.287Z,7.30
2023-04-22T02:37:11.149Z,7.30
2023-04-22T02:39:38.384Z,7.30
2023-04-22T02:42:06.405Z,7.30
2023-04-22T02:44:33.350Z,7.30
2023-04-22T02:47:00.337Z,7.40
2023-04-22T02:49:27.354Z,7.40
2023-04-22T02:51:54.222Z,7.30
2023-04-22T02:54:21.185Z,7.30
2023-04-22T02:56:48.011Z,7.30
2023-04-22T02:59:14.804Z,7.30
2023-04-22T03:01:41.747Z,7.20
2023-04-22T03:04:14.355Z,7.20
2023-04-22T03:06:41.449Z,7.10
2023-04-22T03:09:08.686Z,7.10
2023-04-22T03:11:35.665Z,7.00
2023-04-22T03:14:03.444Z,7.00
2023-04-22T03:16:30.421Z,7.00
2023-04-22T03:18:59.301Z,6.90
2023-04-22T03:21:28.576Z,6.90
2023-04-22T03:23:55.521Z,6.90
2023-04-22T03:26:23.854Z,6.90
2023-04-22T03:28:50.742Z,6.90
2023-04-22T03:31:17.992Z,6.80
2023-04-22T03:33:46.541Z,6.80
2023-04-22T03:36:21.452Z,6.70
2023-04-22T03:38:48.366Z,6.70
2023-04-22T03:41:16.011Z,6.60
2023-04-22T03:43:46.442Z,6.60
2023-04-22T03:46:13.559Z,6.60
2023-04-22T03:48:44.982Z,6.60
2023-04-22T03:51:21.406Z,6.60
2023-04-22T03:53:48.214Z,6.60
2023-04-22T03:56:19.547Z,6.70
2023-04-22T03:58:47.283Z,6.70
2023-04-22T04:01:15.580Z,6.70
2023-04-22T04:03:46.499Z,6.70
2023-04-22T04:06:14.963Z,6.70
2023-04-22T04:08:42.428Z,6.80
2023-04-22T04:11:09.846Z,6.80
2023-04-22T04:13:36.716Z,6.80
2023-04-22T04:16:20.036Z,6.80
2023-04-22T04:18:52.562Z,6.90
2023-04-22T04:21:21.655Z,6.80
2023-04-22T04:23:51.264Z,6.80
2023-04-22T04:26:22.166Z,6.80
2023-04-22T04:28:53.659Z,6.80
2023-04-22T04:31:21.468Z,6.80
2023-04-22T04:33:48.527Z,6.80
2023-04-22T04:36:15.385Z,6.80
2023-04-22T04:38:43.120Z,6.90
2023-04-22T04:41:10.638Z,6.90
2023-04-22T04:43:37.709Z,6.90
2023-04-22T04:46:21.149Z,6.90
2023-04-22T04:48:48.741Z,7.00
2023-04-22T04:51:17.549Z,7.00
2023-04-22T04:53:51.859Z,7.00
2023-04-22T04:56:19.730Z,7.10
2023-04-22T04:58:47.447Z,7.10
2023-04-22T05:01:22.273Z,7.10
2023-04-22T05:03:49.597Z,7.10
2023-04-22T05:06:18.911Z,7.10
2023-04-22T05:08:53.757Z,7.10
2023-04-22T05:11:20.942Z,7.10
2023-04-22T05:13:50.618Z,7.20
2023-04-22T05:16:24.075Z,7.20
2023-04-22T05:18:50.989Z,7.20
2023-04-22T05:21:17.847Z,7.20
2023-04-22T05:23:45.617Z,7.30
2023-04-22T05:26:13.533Z,7.30
2023-04-22T05:28:42.366Z,7.30
2023-04-22T05:31:09.247Z,7.30
2023-04-22T05:33:37.256Z,7.40
2023-04-22T05:36:06.168Z,7.40
2023-04-22T05:38:33.095Z,7.40
2023-04-22T05:41:00.771Z,7.40
2023-04-22T05:43:28.378Z,7.50
2023-04-22T05:46:05.918Z,7.40
2023-04-22T05:48:37.442Z,7.40
2023-04-22T05:51:08.189Z,7.40
2023-04-22T05:53:35.740Z,7.40
2023-04-22T05:56:03.347Z,7.40
2023-04-22T05:58:30.237Z,7.50
2023-04-22T06:01:01.514Z,7.60
2023-04-22T06:03:47.631Z,7.70
2023-04-22T06:06:14.686Z,7.80
2023-04-22T06:08:41.485Z,7.90
2023-04-22T06:11:08.361Z,8.00
2023-04-22T06:13:36.544Z,8.20
2023-04-22T06:16:05.159Z,8.30
2023-04-22T06:18:32.721Z,8.40
2023-04-22T06:21:00.225Z,8.60
2023-04-22T06:23:26.974Z,8.70
2023-04-22T06:25:53.774Z,8.80
2023-04-22T06:28:21.080Z,8.90
2023-04-22T06:30:50.473Z,8.90
2023-04-22T06:33:17.670Z,9.00
2023-04-22T06:35:44.650Z,9.00
2023-04-22T06:38:11.498Z,9.10
2023-04-22T06:40:47.224Z,9.10
2023-04-22T06:43:36.792Z,9.10
2023-04-22T06:46:23.530Z,9.20
2023-04-22T06:49:13.209Z,9.20
2023-04-22T06:52:00.327Z,9.30
2023-04-22T06:54:27.201Z,9.20
2023-04-22T06:56:55.048Z,9.20
2023-04-22T06:59:21.959Z,9.10
2023-04-22T07:01:48.958Z,9.10
2023-04-22T07:04:15.799Z,9.20
2023-04-22T07:06:43.401Z,9.40
2023-04-22T07:09:10.272Z,9.80
2023-04-22T07:11:38.265Z,10.20
2023-04-22T07:14:16.884Z,10.40
2023-04-22T07:16:43.743Z,10.60
2023-04-22T07:19:10.638Z,10.70
2023-04-22T07:21:37.604Z,10.80
2023-04-22T07:24:04.792Z,10.80
2023-04-22T07:26:32.343Z,10.80
2023-04-22T07:28:59.087Z,10.80
2023-04-22T07:31:25.895Z,10.80
2023-04-22T07:33:52.693Z,10.80
2023-04-22T07:36:19.467Z,10.80
2023-04-22T07:38:46.303Z,11.00
2023-04-22T07:41:13.655Z,11.00
2023-04-22T07:43:40.452Z,11.20
2023-04-22T07:46:07.391Z,11.30
2023-04-22T07:48:34.212Z,11.30
2023-04-22T07:51:01.005Z,11.40
2023-04-22T07:53:27.876Z,11.50
2023-04-22T07:55:55.851Z,11.50
2023-04-22T07:58:22.765Z,11.60
2023-04-22T08:00:49.565Z,11.70
2023-04-22T08:03:16.801Z,11.70
2023-04-22T08:05:43.809Z,11.80
2023-04-22T08:08:10.736Z,11.90
2023-04-22T08:10:37.571Z,11.90
2023-04-22T08:13:04.391Z,12.10
2023-04-22T08:15:31.246Z,12.20
2023-04-22T08:17:57.996Z,12.40
2023-04-22T08:20:25.707Z,12.50
2023-04-22T08:22:57.557Z,12.70
2023-04-22T08:25:24.342Z,12.80
2023-04-22T08:27:51.642Z,12.90
2023-04-22T08:30:18.585Z,13.00
2023-04-22T08:32:45.994Z,13.00
2023-04-22T08:35:12.922Z,13.10
2023-04-22T08:37:40.796Z,13.20
2023-04-22T08:40:08.721Z,13.40
2023-04-22T08:42:35.574Z,13.50
2023-04-22T08:45:05.712Z,13.60
2023-04-22T08:47:35.542Z,13.70
2023-04-22T08:50:21.236Z,14.00
2023-04-22T08:52:52.914Z,14.30
2023-04-22T08:55:20.531Z,14.50
2023-04-22T08:57:47.544Z,14.50
2023-04-22T09:00:15.015Z,14.50
2023-04-22T09:02:44.927Z,14.50
2023-04-22T09:05:11.823Z,14.60
2023-04-22T09:07:41.534Z,14.70
2023-04-22T09:10:08.654Z,14.70
2023-04-22T09:12:35.615Z,14.70
2023-04-22T09:15:02.416Z,14.80
2023-04-22T09:17:33.863Z,14.90
2023-04-22T09:20:01.967Z,15.00
2023-04-22T09:22:30.584Z,15.10
2023-04-22T09:24:57.691Z,15.20
2023-04-22T09:27:24.976Z,15.30
2023-04-22T09:29:52.434Z,15.40
2023-04-22T09:32:19.378Z,15.40
2023-04-22T09:34:51.227Z,15.40
2023-04-22T09:37:35.838Z,15.50
2023-04-22T09:40:09.745Z,15.60
2023-04-22T09:42:36.676Z,15.70
2023-04-22T09:45:03.808Z,15.70
2023-04-22T09:47:35.912Z,15.70
2023-04-22T09:50:04.415Z,15.80
2023-04-22T09:52:31.174Z,16.00
2023-04-22T09:54:57.983Z,16.30
2023-04-22T09:57:24.955Z,16.60
2023-04-22T09:59:53.000Z,16.80
2023-04-22T10:02:20.100Z,16.90
2023-04-22T10:04:47.912Z,16.90
2023-04-22T10:07:15.264Z,16.90
2023-04-22T10:09:42.874Z,17.00
2023-04-22T10:12:09.803Z,17.10
2023-04-22T10:14:36.620Z,17.30
2023-04-22T10:17:04.139Z,17.40
2023-04-22T10:19:31.029Z,17.50
2023-04-22T10:22:04.749Z,17.50
2023-04-22T10:24:36.015Z,17.50
2023-04-22T10:27:06.578Z,17.70
2023-04-22T10:29:39.023Z,17.80
2023-04-22T10:32:24.908Z,18.10
2023-04-22T10:35:06.957Z,18.40
2023-04-22T10:37:33.970Z,18.70
2023-04-22T10:40:08.872Z,18.90
2023-04-22T10:42:36.323Z,19.20
2023-04-22T10:45:04.252Z,19.30
2023-04-22T10:47:32.317Z,19.30
2023-04-22T10:50:24.580Z,19.20
2023-04-22T10:52:54.385Z,19.10
2023-04-22T10:55:21.672Z,19.20
2023-04-22T10:57:49.171Z,19.40
2023-04-22T11:00:17.206Z,19.40
2023-04-22T11:02:51.812Z,19.40
2023-04-22T11:05:25.302Z,19.40
2023-04-22T11:07:54.357Z,19.30
2023-04-22T11:10:50.050Z,19.10
2023-04-22T11:13:19.012Z,18.60
2023-04-22T11:15:47.607Z,18.20
2023-04-22T11:18:22.325Z,17.90
2023-04-22T11:20:50.114Z,17.90
2023-04-22T11:23:27.545Z,18.20
2023-04-22T11:25:55.909Z,18.60
2023-04-22T11:28:22.999Z,19.00
2023-04-22T11:30:49.895Z,19.40
2023-04-22T11:33:17.054Z,19.70
2023-04-22T11:35:43.960Z,20.20
2023-04-22T11:38:10.811Z,20.50
2023-04-22T11:40:40.752Z,20.80
2023-04-22T11:43:10.229Z,21.10
2023-04-22T11:45:38.021Z,21.00
2023-04-22T11:48:09.389Z,21.10
2023-04-22T11:50:37.386Z,21.40
2023-04-22T11:53:24.521Z,21.80
2023-04-22T11:55:54.166Z,22.20
2023-04-22T11:58:24.929Z,22.10
2023-04-22T12:00:52.854Z,22.00
2023-04-22T12:03:24.813Z,21.80
2023-04-22T12:05:55.990Z,21.60
2023-04-22T12:08:44.596Z,21.80
2023-04-22T12:11:11.950Z,21.50
2023-04-22T12:13:38.783Z,21.70
2023-04-22T12:16:09.817Z,22.20
2023-04-22T12:18:49.891Z,22.30
2023-04-22T12:21:25.091Z,22.20
2023-04-22T12:23:52.499Z,22.20
2023-04-22T12:26:24.572Z,22.20
2023-04-22T12:28:52.344Z,22.40
2023-04-22T12:31:19.572Z,22.20
2023-04-22T12:33:46.864Z,22.00
2023-04-22T12:36:13.948Z,21.90
2023-04-22T12:38:41.421Z,21.30
2023-04-22T12:41:08.354Z,20.80
2023-04-22T12:43:39.370Z,20.20
2023-04-22T12:46:07.526Z,19.60
2023-04-22T12:48:34.449Z,19.00
2023-04-22T12:51:01.327Z,18.50
2023-04-22T12:53:28.388Z,18.10
2023-04-22T12:55:55.606Z,17.80
2023-04-22T12:58:22.407Z,17.50
2023-04-22T13:00:49.210Z,17.20
2023-04-22T13:03:16.477Z,16.80
2023-04-22T13:05:44.817Z,16.50
2023-04-22T13:08:11.672Z,16.20
2023-04-22T13:10:38.716Z,16.00
2023-04-22T13:13:17.883Z,15.80
2023-04-22T13:15:53.278Z,15.60
2023-04-22T13:18:21.645Z,15.40
2023-04-22T13:20:48.539Z,15.20
2023-04-22T13:23:17.177Z,15.00
2023-04-22T13:25:44.282Z,14.90
2023-04-22T13:28:11.557Z,14.70
2023-04-22T13:30:39.257Z,14.60
2023-04-22T13:33:06.245Z,14.40
2023-04-22T13:35:33.179Z,14.30
2023-04-22T13:38:00.079Z,14.20
2023-04-22T13:40:27.454Z,14.10
2023-04-22T13:42:57.221Z,14.10
2023-04-22T13:45:24.825Z,14.00
2023-04-22T13:47:52.311Z,14.00
2023-04-22T13:50:19.176Z,13.90
2023-04-22T13:52:46.206Z,13.80
2023-04-22T13:55:13.106Z,13.70
2023-04-22T13:57:39.963Z,13.70
2023-04-22T14:00:07.525Z,13.70
2023-04-22T14:02:40.798Z,13.70
2023-04-22T14:05:07.929Z,13.60
2023-04-22T14:07:34.813Z,13.60
2023-04-22T14:10:01.614Z,13.60
2023-04-22T14:12:28.576Z,13.60
2023-04-22T14:14:55.429Z,13.60
2023-04-22T14:17:22.901Z,13.60
2023-04-22T14:19:49.873Z,13.70
2023-04-22T14:22:16.659Z,13.70
2023-04-22T14:24:43.559Z,13.90
2023-04-22T14:27:12.443Z,13.90
2023-04-22T14:29:39.643Z,14.00
2023-04-22T14:32:06.721Z,14.10
2023-04-22T14:34:33.500Z,14.20
2023-04-22T14:37:00.495Z,14.30
2023-04-22T14:39:27.304Z,14.50
2023-04-22T14:41:54.362Z,14.70
2023-04-22T14:44:21.178Z,15.20
2023-04-22T14:46:48.132Z,16.00
2023-04-22T14:49:15.004Z,17.60
2023-04-22T14:51:41.815Z,19.40
2023-04-22T14:54:08.650Z,20.80
2023-04-22T14:56:36.466Z,21.60
2023-04-22T14:59:03.321Z,21.70
2023-04-22T15:01:31.047Z,21.50
2023-04-22T15:03:58.005Z,21.30
2023-04-22T15:06:25.078Z,21.10
2023-04-22T15:08:51.925Z,21.50
2023-04-22T15:11:18.917Z,22.70
2023-04-22T15:13:45.702Z,23.70
2023-04-22T15:16:13.445Z,24.60
2023-04-22T15:18:40.317Z,25.50
2023-04-22T15:21:10.218Z,26.50
2023-04-22T15:23:37.026Z,27.20
2023-04-22T15:26:04.285Z,27.70
2023-04-22T15:28:31.172Z,27.60
2023-04-22T15:30:57.948Z,27.50
2023-04-22T15:33:24.769Z,27.60
2023-04-22T15:35:51.712Z,27.80
2023-04-22T15:38:18.583Z,27.80
2023-04-22T15:40:45.382Z,27.70
2023-04-22T15:43:13.667Z,27.80
2023-04-22T15:45:40.513Z,28.30
2023-04-22T15:48:07.316Z,28.80
2023-04-22T15:50:34.235Z,29.10
2023-04-22T15:53:01.073Z,28.80
2023-04-22T15:55:27.835Z,27.90
2023-04-22T15:57:54.607Z,27.70
2023-04-22T16:00:21.422Z,27.80
2023-04-22T16:02:55.159Z,27.70
2023-04-22T16:05:24.448Z,27.60
2023-04-22T16:07:52.918Z,27.80
2023-04-22T16:10:19.839Z,28.40
2023-04-22T16:12:46.920Z,28.80
2023-04-22T16:15:13.748Z,29.10
2023-04-22T16:17:40.615Z,29.40
2023-04-22T16:20:08.496Z,29.60
2023-04-22T16:22:35.382Z,29.60
2023-04-22T16:25:02.323Z,29.70
2023-04-22T16:27:29.203Z,29.90
2023-04-22T16:29:56.103Z,29.90
2023-04-22T16:32:22.864Z,30.00
2023-04-22T16:34:49.671Z,29.70
2023-04-22T16:37:16.556Z,29.20
2023-04-22T16:39:43.543Z,29.00
2023-04-22T16:42:10.372Z,29.20
2023-04-22T16:44:37.150Z,29.40
2023-04-22T16:47:04.019Z,29.50
2023-04-22T16:49:31.201Z,29.50
2023-04-22T16:51:58.136Z,29.40
2023-04-22T16:54:25.382Z,29.30
2023-04-22T16:56:52.254Z,29.00
2023-04-22T16:59:19.093Z,28.60
2023-04-22T17:01:45.914Z,28.30
2023-04-22T17:04:13.569Z,27.90
2023-04-22T17:06:40.988Z,27.30
2023-04-22T17:09:09.043Z,26.90
2023-04-22T17:11:35.836Z,26.90
2023-04-22T17:14:02.741Z,27.20
2023-04-22T17:16:29.621Z,27.60
2023-04-22T17:18:56.482Z,27.90
2023-04-22T17:21:23.448Z,27.40
2023-04-22T17:23:50.473Z,26.80
2023-04-22T17:26:17.494Z,26.40
2023-04-22T17:28:44.318Z,26.40
2023-04-22T17:31:11.324Z,26.60
2023-04-22T17:33:38.146Z,26.60
2023-04-22T17:36:05.247Z,26.40
2023-04-22T17:38:32.300Z,26.20
2023-04-22T17:40:59.090Z,25.80
2023-04-22T17:43:26.158Z,25.40
2023-04-22T17:45:52.981Z,24.60
2023-04-22T17:48:19.937Z,23.60
2023-04-22T17:50:46.781Z,22.40
2023-04-22T17:53:13.606Z,21.30
2023-04-22T17:55:40.525Z,20.30
2023-04-22T17:58:07.315Z,19.50
2023-04-22T18:00:34.834Z,18.80
2023-04-22T18:03:01.966Z,18.20
2023-04-22T18:05:29.014Z,17.80
2023-04-22T18:07:59.686Z,17.50
2023-04-22T18:10:26.694Z,17.30
2023-04-22T18:12:53.474Z,17.10
2023-04-22T18:15:22.138Z,17.10
2023-04-22T18:17:52.100Z,16.90
2023-04-22T18:20:19.730Z,16.80
2023-04-22T18:22:47.747Z,16.60
2023-04-22T18:25:14.876Z,16.50
2023-04-22T18:27:41.643Z,16.40
2023-04-22T18:30:08.858Z,16.40
2023-04-22T18:32:36.742Z,16.40
2023-04-22T18:35:04.637Z,16.30
2023-04-22T18:37:32.666Z,16.20
2023-04-22T18:39:59.534Z,16.00
2023-04-22T18:42:26.313Z,16.00
2023-04-22T18:44:53.066Z,15.80
2023-04-22T18:47:19.914Z,15.70
2023-04-22T18:49:46.677Z,15.70
2023-04-22T18:52:13.495Z,15.70
2023-04-22T18:54:40.926Z,15.60
2023-04-22T18:57:08.311Z,15.40
2023-04-22T18:59:35.158Z,15.40
2023-04-22T19:02:02.004Z,15.20
2023-04-22T19:04:28.847Z,15.20
2023-04-22T19:06:57.051Z,15.10
2023-04-22T19:09:24.142Z,14.90
2023-04-22T19:11:50.958Z,14.90
2023-04-22T19:14:17.751Z,14.80
2023-04-22T19:16:44.612Z,14.80
2023-04-22T19:19:12.099Z,14.80
2023-04-22T19:21:39.400Z,14.80
2023-04-22T19:24:06.568Z,14.80
2023-04-22T19:26:33.554Z,14.80
2023-04-22T19:29:00.411Z,14.80
2023-04-22T19:31:30.705Z,14.80
2023-04-22T19:33:57.893Z,14.70
2023-04-22T19:36:24.686Z,14.70
2023-04-22T19:38:51.496Z,14.60
2023-04-22T19:41:18.314Z,14.50
2023-04-22T19:43:45.989Z,14.40
2023-04-22T19:46:12.953Z,14.30
2023-04-22T19:48:40.718Z,14.20
2023-04-22T19:51:07.842Z,14.10
2023-04-22T19:53:34.744Z,14.00
2023-04-22T19:56:01.691Z,13.90
2023-04-22T19:58:29.284Z,13.90
2023-04-22T20:00:56.319Z,13.80
2023-04-22T20:03:23.476Z,13.70
2023-04-22T20:05:50.554Z,13.60
2023-04-22T20:08:19.213Z,13.60
2023-04-22T20:10:48.046Z,13.60
2023-04-22T20:13:15.043Z,13.60
2023-04-22T20:15:42.710Z,13.60
2023-04-22T20:18:09.915Z,13.60
2023-04-22T20:20:37.040Z,13.50
2023-04-22T20:23:09.837Z,13.50
2023-04-22T20:25:39.677Z,13.50
2023-04-22T20:28:07.113Z,13.50
2023-04-22T20:30:34.429Z,13.50
2023-04-22T20:33:01.766Z,13.40
2023-04-22T20:35:28.930Z,13.40
2023-04-22T20:37:58.073Z,13.40
2023-04-22T20:40:25.372Z,13.30
2023-04-22T20:42:52.309Z,13.30
2023-04-22T20:45:20.400Z,13.20
2023-04-22T20:47:48.391Z,13.20
2023-04-22T20:50:16.057Z,13.20
2023-04-22T20:52:43.363Z,13.10
2023-04-22T20:55:10.469Z,13.10
2023-04-22T20:57:37.598Z,13.00
2023-04-22T21:00:07.185Z,13.00
2023-04-22T21:02:34.137Z,12.90
2023-04-22T21:05:02.191Z,12.80
2023-04-22T21:07:30.778Z,12.70
2023-04-22T21:09:58.207Z,12.70
2023-04-22T21:12:25.872Z,12.70
2023-04-22T21:14:53.578Z,12.60
2023-04-22T21:17:25.667Z,12.60
2023-04-22T21:19:53.185Z,12.50
2023-04-22T21:22:24.094Z,12.50
2023-04-22T21:24:51.487Z,12.50
2023-04-22T21:27:18.821Z,12.50
2023-04-22T21:29:46.629Z,12.50
2023-04-22T21:32:13.499Z,12.50
2023-04-22T21:34:40.771Z,12.50
2023-04-22T21:37:08.209Z,12.50
2023-04-22T21:39:35.295Z,12.60
2023-04-22T21:42:08.374Z,12.70
2023-04-22T21:44:36.856Z,12.70
2023-04-22T21:47:04.268Z,12.60
2023-04-22T21:49:31.282Z,12.60
2023-04-22T21:51:58.632Z,12.50
2023-04-22T21:54:25.722Z,12.40
2023-04-22T21:56:53.680Z,12.30
2023-04-22T21:59:20.570Z,12.30
2023-04-22T22:01:47.402Z,12.20
2023-04-22T22:04:16.237Z,12.10
2023-04-22T22:06:46.395Z,12.00
2023-04-22T22:09:13.848Z,12.00
2023-04-22T22:11:40.697Z,12.00
2023-04-22T22:14:07.698Z,11.90
2023-04-22T22:16:34.570Z,11.90
2023-04-22T22:19:04.373Z,11.90
2023-04-22T22:21:32.723Z,11.90
2023-04-22T22:23:59.663Z,11.90
2023-04-22T22:26:26.612Z,11.90
2023-04-22T22:28:53.995Z,11.90
2023-04-22T22:31:20.944Z,12.00
2023-04-22T22:33:47.903Z,11.90
2023-04-22T22:36:14.717Z,11.90
2023-04-22T22:38:41.543Z,11.90
2023-04-22T22:41:08.287Z,11.90
2023-04-22T22:43:35.359Z,11.90
2023-04-22T22:46:02.169Z,11.90
2023-04-22T22:48:29.070Z,11.90
2023-04-22T22:50:56.691Z,11.90
2023-04-22T22:53:23.569Z,11.90
2023-04-22T22:55:50.367Z,11.90
2023-04-22T22:58:17.289Z,11.90
2023-04-22T23:00:44.061Z,11.90
2023-04-22T23:03:11.139Z,11.90
2023-04-22T23:05:38.084Z,11.90
2023-04-22T23:08:05.017Z,11.90
2023-04-22T23:10:31.847Z,11.80
2023-04-22T23:12:58.711Z,11.80
2023-04-22T23:15:25.519Z,11.80
2023-04-22T23:17:52.326Z,11.70
2023-04-22T23:20:19.204Z,11.70
2023-04-22T23:22:45.986Z,11.80
2023-04-22T23:25:13.477Z,11.80
2023-04-22T23:27:40.628Z,11.80
2023-04-22T23:30:09.044Z,11.80
2023-04-22T23:32:36.000Z,11.90
2023-04-22T23:35:03.036Z,11.90
2023-04-22T23:37:30.158Z,12.00
2023-04-22T23:39:56.995Z,12.00
2023-04-22T23:42:23.881Z,12.10
2023-04-22T23:44:50.737Z,12.10
2023-04-22T23:47:17.811Z,12.20
2023-04-22T23:49:44.705Z,12.20
2023-04-22T23:52:13.024Z,12.20
2023-04-22T23:54:41.368Z,12.20
2023-04-22T23:57:08.769Z,12.20
2023-04-22T23:59:36.036Z,12.30
